The Hangar Logo

METARs in Plain English
Latest METAR information for EGVN - BRIZE NORTON

EGVN 241050Z 22002KT 9999 5000S VCFG BKN250 03/01 Q1027 WHT BECMG 9999 NSW BLU

In plain english is....

This is a METAR report for EGVN - BRIZE NORTON .
The report was made 65 minutes ago, at 10:50 UTC.
The wind was blowing at a speed of 2 knots (2.3 miles per hour, 1.0 metres per second) from the Southwest (220°).
The visibility was greater than 6.2 miles (greater than 10 kilometres).
Weather was Nearby Fog .
There were broken clouds at a height of 25000 feet (7620 metres).
The temperature was 3°C (37°F), a dew point of 1°C (34°F) and a relative humidity of 86.7%.
The altimeter setting (airfield QNH) was 1,027 hPa (30.33 inHg).
Other remarks 5000S WHT BECMG 9999 NSW BLU.

UK Mainland

Ireland

Channel Islands

France

Other



Enter
Tel: 07092 887559 - Fax: 07092 183262

Terms of Use | Privacy Statement
Content copyright © 1999-2012 TheHangar.co.uk. All rights reserved.
Please send your questions, comments, or bug reports to the Webmaster.